createdAt,value
2023-02-20T00:01:34.838Z,13.98
2023-02-20T00:04:01.452Z,21.45
2023-02-20T00:06:27.998Z,18.98
2023-02-20T00:08:55.068Z,14.13
2023-02-20T00:11:28.973Z,17.73
2023-02-20T00:13:55.493Z,17.20
2023-02-20T00:18:48.466Z,19.23
2023-02-20T00:21:15.014Z,15.38
2023-02-20T00:26:13.866Z,21.58
2023-02-20T00:28:43.063Z,18.27
2023-02-20T00:31:15.407Z,27.65
2023-02-20T00:33:42.336Z,25.10
2023-02-20T00:36:15.105Z,18.48
2023-02-20T00:38:44.266Z,15.70
2023-02-20T00:41:14.367Z,23.63
2023-02-20T00:43:42.064Z,15.23
2023-02-20T00:46:12.943Z,21.75
2023-02-20T00:48:39.982Z,21.10
2023-02-20T00:51:25.528Z,22.15
2023-02-20T00:53:52.161Z,24.13
2023-02-20T00:56:18.763Z,17.10
2023-02-20T00:58:45.691Z,19.55
2023-02-20T01:01:12.399Z,32.80
2023-02-20T01:03:39.166Z,30.67
2023-02-20T01:06:05.876Z,26.58
2023-02-20T01:08:32.505Z,12.90
2023-02-20T01:13:26.782Z,27.77
2023-02-20T01:15:53.406Z,14.75
2023-02-20T01:18:20.120Z,20.58
2023-02-20T01:20:46.709Z,24.75
2023-02-20T01:23:13.279Z,21.83
2023-02-20T01:25:39.814Z,15.50
2023-02-20T01:30:32.866Z,30.60
2023-02-20T01:32:59.488Z,23.38
2023-02-20T01:35:30.978Z,18.20
2023-02-20T01:38:01.240Z,21.15
2023-02-20T01:40:28.420Z,22.95
2023-02-20T01:42:54.917Z,22.58
2023-02-20T01:47:51.464Z,18.52
2023-02-20T01:50:22.120Z,17.20
2023-02-20T01:52:52.750Z,22.98
2023-02-20T01:55:19.241Z,33.95
2023-02-20T02:00:20.370Z,20.13
2023-02-20T02:03:04.772Z,23.70
2023-02-20T02:05:33.030Z,13.35
2023-02-20T02:08:03.258Z,15.75
2023-02-20T02:10:50.135Z,19.55
2023-02-20T02:13:16.624Z,16.52
2023-02-20T02:18:30.650Z,13.13
2023-02-20T02:24:01.567Z,26.30
2023-02-20T02:26:59.887Z,22.85
2023-02-20T02:29:46.807Z,13.63
2023-02-20T02:32:43.827Z,21.30
2023-02-20T02:38:03.925Z,16.40
2023-02-20T02:40:54.559Z,25.20
2023-02-20T02:43:55.336Z,19.23
2023-02-20T02:46:35.079Z,16.83
2023-02-20T02:49:14.242Z,16.95
2023-02-20T02:51:45.715Z,22.30
2023-02-20T02:54:26.135Z,16.88
2023-02-20T02:56:54.238Z,21.38
2023-02-20T02:59:29.721Z,18.10
2023-02-20T03:02:01.692Z,15.63
2023-02-20T03:04:31.521Z,14.13
2023-02-20T03:07:08.840Z,20.25
2023-02-20T03:09:40.636Z,21.83
2023-02-20T03:12:09.795Z,21.80
2023-02-20T03:15:01.111Z,21.83
2023-02-20T03:17:36.177Z,19.63
2023-02-20T03:20:08.646Z,21.20
2023-02-20T03:22:50.501Z,22.63
2023-02-20T03:25:28.047Z,19.67
2023-02-20T03:27:59.495Z,16.50
2023-02-20T03:30:36.458Z,20.02
2023-02-20T03:36:12.834Z,18.63
2023-02-20T03:39:00.028Z,25.60
2023-02-20T03:41:48.280Z,20.02
2023-02-20T03:44:17.871Z,26.95
2023-02-20T03:46:49.646Z,19.90
2023-02-20T03:49:21.458Z,20.23
2023-02-20T03:51:57.534Z,24.15
2023-02-20T03:54:36.994Z,16.63
2023-02-20T03:57:18.562Z,22.17
2023-02-20T03:59:53.034Z,20.50
2023-02-20T04:02:30.409Z,21.42
2023-02-20T04:05:01.511Z,20.27
2023-02-20T04:07:45.372Z,15.88
2023-02-20T04:10:20.735Z,19.83
2023-02-20T04:12:50.655Z,24.58
2023-02-20T04:15:20.147Z,19.50
2023-02-20T04:17:52.861Z,15.38
2023-02-20T04:20:19.484Z,22.20
2023-02-20T04:23:00.765Z,15.25
2023-02-20T04:25:48.437Z,17.25
2023-02-20T04:28:16.593Z,15.57
2023-02-20T04:33:19.641Z,17.77
2023-02-20T04:35:47.388Z,18.75
2023-02-20T04:38:14.605Z,15.32
2023-02-20T04:40:41.870Z,12.95
2023-02-20T04:43:08.824Z,24.55
2023-02-20T04:45:35.695Z,29.83
2023-02-20T04:48:02.554Z,18.50
2023-02-20T04:50:33.934Z,17.70
2023-02-20T04:53:02.428Z,15.93
2023-02-20T04:55:29.269Z,31.25
2023-02-20T04:57:59.493Z,23.15
2023-02-20T05:00:30.360Z,19.05
2023-02-20T05:05:26.983Z,14.95
2023-02-20T05:07:58.393Z,24.27
2023-02-20T05:10:26.508Z,18.30
2023-02-20T05:12:53.169Z,32.00
2023-02-20T05:15:20.090Z,25.70
2023-02-20T05:17:47.216Z,24.25
2023-02-20T05:20:14.995Z,13.90
2023-02-20T05:22:41.648Z,17.35
2023-02-20T05:25:10.105Z,14.82
2023-02-20T05:27:36.710Z,16.23
2023-02-20T05:30:04.012Z,28.58
2023-02-20T05:32:31.130Z,20.40
2023-02-20T05:34:57.961Z,22.88
2023-02-20T05:37:26.871Z,10.77
2023-02-20T05:39:53.481Z,14.38
2023-02-20T05:42:21.467Z,23.08
2023-02-20T05:44:49.674Z,15.90
2023-02-20T05:47:17.594Z,13.45
2023-02-20T05:49:44.177Z,16.13
2023-02-20T05:52:12.926Z,12.77
2023-02-20T05:54:40.626Z,23.88
2023-02-20T05:57:07.636Z,20.85
2023-02-20T05:59:34.731Z,16.35
2023-02-20T06:02:01.418Z,17.48
2023-02-20T06:04:28.648Z,15.35
2023-02-20T06:06:55.262Z,12.00
2023-02-20T06:09:21.885Z,16.50
2023-02-20T06:11:54.531Z,18.15
2023-02-20T06:14:23.074Z,15.63
2023-02-20T06:16:49.559Z,11.38
2023-02-20T06:21:50.789Z,20.02
2023-02-20T06:24:18.051Z,12.95
2023-02-20T06:26:45.410Z,16.17
2023-02-20T06:29:13.426Z,16.20
2023-02-20T06:31:40.051Z,16.40
2023-02-20T06:34:08.237Z,12.90
2023-02-20T06:36:38.792Z,17.23
2023-02-20T06:39:06.944Z,12.13
2023-02-20T06:41:33.549Z,17.33
2023-02-20T06:44:00.069Z,8.98
2023-02-20T06:48:56.122Z,17.05
2023-02-20T06:51:29.751Z,23.55
2023-02-20T06:53:56.364Z,7.88
2023-02-20T06:56:29.500Z,17.70
2023-02-20T06:58:57.095Z,16.52
2023-02-20T07:01:29.776Z,19.40
2023-02-20T07:03:58.462Z,9.80
2023-02-20T07:06:25.750Z,12.20
2023-02-20T07:08:52.327Z,8.95
2023-02-20T07:11:21.203Z,10.32
2023-02-20T07:13:47.680Z,11.93
2023-02-20T07:18:41.268Z,15.30
2023-02-20T07:23:34.288Z,17.17
2023-02-20T07:28:27.225Z,24.00
2023-02-20T07:30:53.701Z,14.82
2023-02-20T07:35:46.686Z,18.38
2023-02-20T07:38:14.844Z,15.40
2023-02-20T07:40:41.437Z,11.02
2023-02-20T07:43:08.009Z,11.40
2023-02-20T07:45:39.317Z,14.05
2023-02-20T07:48:06.042Z,12.23
2023-02-20T07:50:32.517Z,15.13
2023-02-20T07:55:25.473Z,12.30
2023-02-20T08:00:21.774Z,11.15
2023-02-20T08:02:48.373Z,14.32
2023-02-20T08:07:46.257Z,18.20
2023-02-20T08:10:14.637Z,14.68
2023-02-20T08:12:41.156Z,21.50
2023-02-20T08:17:45.528Z,13.32
2023-02-20T08:20:12.716Z,9.75
2023-02-20T08:22:41.771Z,14.25
2023-02-20T08:25:08.879Z,12.75
2023-02-20T08:27:38.453Z,12.05
2023-02-20T08:30:11.207Z,10.40
2023-02-20T08:32:37.790Z,12.45
2023-02-20T08:35:04.989Z,15.48
2023-02-20T08:37:31.500Z,11.00
2023-02-20T08:42:24.428Z,11.90
2023-02-20T08:44:51.023Z,13.30
2023-02-20T08:49:48.533Z,19.63
2023-02-20T08:52:15.955Z,10.07
2023-02-20T08:54:49.417Z,10.77
2023-02-20T08:57:17.174Z,19.83
2023-02-20T08:59:43.866Z,12.43
2023-02-20T09:02:19.110Z,15.77
2023-02-20T09:04:46.312Z,12.88
2023-02-20T09:07:14.174Z,18.08
2023-02-20T09:09:40.893Z,15.18
2023-02-20T09:12:10.390Z,14.93
2023-02-20T09:14:36.984Z,13.32
2023-02-20T09:17:05.078Z,15.48
2023-02-20T09:19:32.389Z,13.80
2023-02-20T09:21:58.868Z,13.07
2023-02-20T09:26:51.724Z,18.05
2023-02-20T09:29:18.191Z,10.43
2023-02-20T09:31:44.737Z,14.43
2023-02-20T09:36:37.703Z,9.02
2023-02-20T09:41:49.433Z,19.42
2023-02-20T09:44:35.091Z,11.95
2023-02-20T09:47:27.748Z,17.10
2023-02-20T09:50:00.135Z,12.63
2023-02-20T09:52:29.950Z,16.83
2023-02-20T09:55:08.058Z,14.63
2023-02-20T09:57:37.456Z,14.82
2023-02-20T10:00:17.373Z,17.60
2023-02-20T10:02:58.929Z,12.35
2023-02-20T10:05:29.273Z,14.60
2023-02-20T10:07:55.854Z,15.45
2023-02-20T10:10:40.740Z,14.40
2023-02-20T10:13:31.231Z,19.23
2023-02-20T10:16:13.003Z,13.18
2023-02-20T10:18:50.480Z,7.88
2023-02-20T10:21:28.729Z,12.60
2023-02-20T10:24:07.005Z,8.48
2023-02-20T10:26:37.242Z,15.27
2023-02-20T10:29:44.646Z,17.55
2023-02-20T10:32:20.559Z,11.57
2023-02-20T10:35:05.810Z,11.85
2023-02-20T10:37:47.818Z,10.02
2023-02-20T10:40:39.301Z,9.85
2023-02-20T10:43:46.058Z,12.73
2023-02-20T10:46:50.208Z,13.55
2023-02-20T10:49:33.798Z,11.45
2023-02-20T10:52:05.424Z,19.05
2023-02-20T10:54:44.605Z,9.35
2023-02-20T10:57:16.239Z,10.75
2023-02-20T10:59:52.535Z,11.43
2023-02-20T11:02:23.473Z,8.80
2023-02-20T11:04:57.323Z,9.68
2023-02-20T11:07:23.934Z,11.65
2023-02-20T11:09:50.578Z,12.32
2023-02-20T11:12:31.539Z,10.02
2023-02-20T11:32:38.391Z,11.75
2023-02-20T11:35:17.240Z,10.95
2023-02-20T11:37:55.503Z,11.82
2023-02-20T11:40:32.262Z,6.38
2023-02-20T11:43:13.608Z,13.93
2023-02-20T11:45:40.756Z,7.65
2023-02-20T11:48:14.708Z,4.40
2023-02-20T11:50:48.068Z,8.18
2023-02-20T11:53:24.056Z,9.38
2023-02-20T11:56:10.434Z,8.80
2023-02-20T11:58:39.079Z,7.97
2023-02-20T12:01:06.801Z,6.15
2023-02-20T12:03:35.961Z,7.70
2023-02-20T12:06:31.278Z,9.27
2023-02-20T12:09:01.165Z,11.02
2023-02-20T12:11:29.170Z,7.25
2023-02-20T12:13:58.881Z,10.52
2023-02-20T12:16:34.573Z,9.80
2023-02-20T12:19:18.684Z,9.68
2023-02-20T12:22:07.130Z,10.73
2023-02-20T12:24:52.717Z,5.78
2023-02-20T12:27:50.140Z,7.97
2023-02-20T12:30:57.073Z,10.02
2023-02-20T12:33:52.484Z,7.03
2023-02-20T12:36:31.373Z,6.93
2023-02-20T12:39:06.116Z,6.63
2023-02-20T12:42:22.163Z,9.20
2023-02-20T12:45:27.382Z,10.13
2023-02-20T12:48:46.524Z,12.75
2023-02-20T12:51:38.538Z,6.88
2023-02-20T12:54:32.495Z,7.68
2023-02-20T12:57:12.174Z,8.98
2023-02-20T13:00:02.178Z,10.85
2023-02-20T13:02:43.259Z,7.25
2023-02-20T13:05:16.504Z,6.97
2023-02-20T13:07:52.585Z,5.38
2023-02-20T13:10:25.466Z,4.47
2023-02-20T13:12:53.881Z,8.38
2023-02-20T13:15:43.256Z,11.82
2023-02-20T13:18:17.504Z,14.43
2023-02-20T13:20:49.063Z,11.98
2023-02-20T13:23:15.580Z,13.05
2023-02-20T13:28:12.739Z,6.00
2023-02-20T13:30:42.328Z,7.30
2023-02-20T13:33:22.756Z,7.70
2023-02-20T13:35:56.762Z,9.63
2023-02-20T13:38:25.856Z,7.45
2023-02-20T13:40:55.158Z,6.05
2023-02-20T13:43:28.016Z,5.20
2023-02-20T13:46:00.303Z,9.65
2023-02-20T13:48:30.638Z,2.58
2023-02-20T13:51:15.525Z,7.85
2023-02-20T13:54:03.364Z,6.57
2023-02-20T13:59:12.598Z,6.32
2023-02-20T14:02:01.636Z,5.05
2023-02-20T14:04:28.754Z,4.88
2023-02-20T14:06:58.708Z,7.68
2023-02-20T14:09:32.398Z,14.20
2023-02-20T14:12:17.156Z,6.55
2023-02-20T14:14:45.953Z,7.50
2023-02-20T14:17:20.758Z,4.22
2023-02-20T14:20:05.291Z,10.50
2023-02-20T14:22:39.830Z,15.88
2023-02-20T14:25:12.277Z,9.75
2023-02-20T14:27:40.435Z,9.82
2023-02-20T14:30:09.626Z,4.07
2023-02-20T14:32:36.818Z,7.35
2023-02-20T14:35:27.680Z,3.55
2023-02-20T14:38:06.754Z,7.75
2023-02-20T14:40:42.015Z,3.53
2023-02-20T14:43:16.452Z,11.75
2023-02-20T14:45:45.525Z,5.90
2023-02-20T14:48:41.836Z,9.57
2023-02-20T14:51:11.116Z,9.02
2023-02-20T14:53:40.291Z,6.57
2023-02-20T14:56:14.780Z,5.63
2023-02-20T14:58:41.918Z,9.15
2023-02-20T15:01:29.599Z,8.40
2023-02-20T15:06:26.468Z,5.97
2023-02-20T15:08:57.979Z,11.80
2023-02-20T15:11:25.369Z,6.40
2023-02-20T15:13:52.001Z,8.93
2023-02-20T15:16:24.492Z,3.33
2023-02-20T15:18:51.627Z,6.35
2023-02-20T15:21:40.655Z,5.50
2023-02-20T15:24:25.208Z,7.70
2023-02-20T15:26:52.278Z,6.03
2023-02-20T15:29:18.753Z,8.25
2023-02-20T15:34:21.987Z,4.32
2023-02-20T15:36:50.065Z,7.85
2023-02-20T15:39:18.456Z,6.93
2023-02-20T15:41:45.823Z,6.18
2023-02-20T15:44:12.364Z,7.45
2023-02-20T15:49:07.191Z,7.88
2023-02-20T15:51:38.467Z,9.10
2023-02-20T15:54:06.968Z,9.10
2023-02-20T15:56:34.933Z,15.32
2023-02-20T15:59:06.316Z,16.35
2023-02-20T16:01:33.084Z,14.98
2023-02-20T16:03:59.646Z,17.65
2023-02-20T16:08:53.791Z,5.80
2023-02-20T16:11:23.332Z,10.38
2023-02-20T16:13:55.957Z,4.05
2023-02-20T16:16:29.190Z,7.55
2023-02-20T16:18:56.108Z,12.65
2023-02-20T16:21:24.504Z,8.80
2023-02-20T16:23:52.011Z,15.05
2023-02-20T16:26:21.687Z,6.47
2023-02-20T16:28:55.001Z,5.97
2023-02-20T16:31:21.654Z,6.07
2023-02-20T16:33:49.462Z,6.68
2023-02-20T16:36:24.417Z,3.55
2023-02-20T16:38:51.336Z,8.45
2023-02-20T16:43:44.402Z,3.55
2023-02-20T16:48:37.454Z,5.43
2023-02-20T16:53:32.951Z,7.15
2023-02-20T16:58:26.026Z,4.75
2023-02-20T17:03:25.378Z,6.10
2023-02-20T17:05:59.277Z,10.77
2023-02-20T17:08:27.185Z,7.88
2023-02-20T17:10:53.835Z,7.20
2023-02-20T17:15:47.773Z,15.85
2023-02-20T17:18:14.899Z,6.72
2023-02-20T17:20:41.774Z,5.30
2023-02-20T17:23:08.372Z,5.30
2023-02-20T17:25:35.053Z,8.30
2023-02-20T17:28:02.162Z,8.13
2023-02-20T17:30:28.809Z,6.55
2023-02-20T17:32:55.339Z,5.38
2023-02-20T17:37:49.518Z,8.18
2023-02-20T17:40:16.594Z,6.97
2023-02-20T17:42:43.176Z,14.68
2023-02-20T17:45:10.066Z,8.82
2023-02-20T17:47:37.469Z,12.40
2023-02-20T17:50:04.614Z,10.90
2023-02-20T17:52:31.176Z,6.05
2023-02-20T17:57:26.306Z,4.83
2023-02-20T17:59:52.882Z,7.22
2023-02-20T18:04:46.173Z,9.57
2023-02-20T18:07:13.998Z,5.43
2023-02-20T18:09:41.128Z,6.13
2023-02-20T18:12:08.068Z,10.90
2023-02-20T18:14:34.712Z,7.57
2023-02-20T18:17:01.432Z,10.27
2023-02-20T18:19:28.247Z,4.40
2023-02-20T18:21:54.841Z,4.38
2023-02-20T18:24:24.875Z,4.03
2023-02-20T18:26:54.641Z,7.97
2023-02-20T18:29:22.417Z,8.50
2023-02-20T18:31:49.714Z,8.80
2023-02-20T18:34:16.669Z,7.13
2023-02-20T18:36:43.367Z,15.63
2023-02-20T18:39:10.319Z,6.88
2023-02-20T18:41:37.704Z,6.60
2023-02-20T18:44:04.751Z,10.52
2023-02-20T18:46:37.052Z,4.93
2023-02-20T18:49:04.208Z,8.43
2023-02-20T18:51:39.608Z,7.65
2023-02-20T18:54:08.982Z,13.50
2023-02-20T18:56:36.506Z,7.15
2023-02-20T18:59:04.869Z,5.32
2023-02-20T19:01:33.795Z,8.73
2023-02-20T19:04:03.045Z,6.93
2023-02-20T19:06:34.439Z,6.90
2023-02-20T19:09:01.691Z,8.23
2023-02-20T19:11:29.199Z,5.40
2023-02-20T19:13:56.020Z,6.93
2023-02-20T19:16:23.120Z,9.13
2023-02-20T19:18:50.944Z,8.13
2023-02-20T19:21:19.105Z,9.45
2023-02-20T19:23:45.924Z,5.82
2023-02-20T19:26:13.279Z,5.13
2023-02-20T19:28:42.237Z,6.97
2023-02-20T19:31:11.046Z,8.45
2023-02-20T19:33:37.893Z,8.38
2023-02-20T19:36:05.153Z,5.25
2023-02-20T19:38:31.739Z,13.02
2023-02-20T19:40:58.236Z,4.57
2023-02-20T19:43:27.741Z,5.65
2023-02-20T19:45:54.369Z,7.53
2023-02-20T19:48:20.899Z,6.35
2023-02-20T19:53:16.348Z,5.97
2023-02-20T19:55:42.954Z,6.97
2023-02-20T19:58:09.502Z,7.57
2023-02-20T20:03:02.606Z,8.32
2023-02-20T20:05:29.174Z,9.55
2023-02-20T20:10:22.917Z,13.13
2023-02-20T20:12:49.628Z,12.52
2023-02-20T20:15:19.187Z,9.45
2023-02-20T20:17:47.453Z,6.57
2023-02-20T20:20:15.270Z,7.63
2023-02-20T20:22:42.030Z,9.57
2023-02-20T20:25:10.683Z,4.63
2023-02-20T20:27:38.095Z,8.48
2023-02-20T20:30:09.655Z,12.65
2023-02-20T20:32:36.239Z,9.60
2023-02-20T20:37:29.678Z,9.60
2023-02-20T20:42:25.542Z,12.13
2023-02-20T20:44:57.823Z,9.70
2023-02-20T20:47:26.560Z,7.63
2023-02-20T20:49:53.117Z,7.72
2023-02-20T20:52:20.847Z,9.23
2023-02-20T20:54:51.488Z,12.00
2023-02-20T20:57:20.053Z,13.65
2023-02-20T20:59:47.276Z,11.30
2023-02-20T21:02:15.552Z,9.30
2023-02-20T21:04:42.889Z,8.38
2023-02-20T21:07:09.510Z,8.35
2023-02-20T21:09:36.044Z,5.70
2023-02-20T21:14:31.192Z,10.98
2023-02-20T21:16:58.221Z,6.53
2023-02-20T21:19:24.853Z,7.97
2023-02-20T21:21:52.714Z,6.90
2023-02-20T21:24:20.430Z,9.55
2023-02-20T21:26:46.987Z,10.70
2023-02-20T21:31:44.226Z,7.22
2023-02-20T21:34:12.358Z,6.18
2023-02-20T21:36:39.059Z,6.07
2023-02-20T21:39:05.808Z,10.55
2023-02-20T21:41:50.707Z,9.60
2023-02-20T21:44:28.521Z,11.80
2023-02-20T21:47:07.073Z,14.50
2023-02-20T21:49:35.511Z,5.80
2023-02-20T21:52:03.578Z,19.45
2023-02-20T21:54:32.317Z,9.85
2023-02-20T21:57:00.525Z,15.13
2023-02-20T21:59:27.782Z,12.73
2023-02-20T22:01:54.430Z,6.30
2023-02-20T22:04:21.748Z,12.40
2023-02-20T22:07:07.263Z,18.80
2023-02-20T22:09:52.376Z,11.80
2023-02-20T22:12:37.508Z,10.90
2023-02-20T22:15:23.141Z,8.52
2023-02-20T22:18:09.095Z,10.13
2023-02-20T22:20:54.340Z,5.35
2023-02-20T22:23:39.580Z,8.38
2023-02-20T22:26:25.129Z,10.32
2023-02-20T22:29:10.043Z,10.63
2023-02-20T22:31:55.275Z,8.98
2023-02-20T22:34:40.449Z,8.77
2023-02-20T22:37:25.648Z,7.82
2023-02-20T22:40:11.106Z,9.15
2023-02-20T22:42:56.373Z,5.55
2023-02-20T22:45:41.605Z,7.97
2023-02-20T22:48:26.465Z,8.38
2023-02-20T22:51:11.795Z,9.55
2023-02-20T22:53:56.936Z,12.10
2023-02-20T22:56:42.596Z,9.68
2023-02-20T22:59:28.153Z,9.98
2023-02-20T23:17:48.891Z,13.68
2023-02-20T23:20:38.453Z,10.57
2023-02-20T23:23:24.088Z,13.27
2023-02-20T23:26:09.792Z,8.98
2023-02-20T23:28:55.527Z,12.95
2023-02-20T23:31:51.058Z,8.70
2023-02-20T23:34:36.235Z,10.02
2023-02-20T23:37:21.520Z,7.75
2023-02-20T23:40:06.849Z,7.18
2023-02-20T23:42:51.734Z,8.75
2023-02-20T23:45:36.767Z,7.40
2023-02-20T23:48:22.134Z,11.63
2023-02-20T23:51:07.266Z,7.35
2023-02-20T23:53:53.990Z,7.45
2023-02-20T23:56:39.831Z,7.43
2023-02-20T23:59:25.106Z,7.53
